EKSN/CNL METAR and TAF weather

Enter ICAO airport designator
Station Type Date Time Source
EKSN METAR 2018/10/19 11:50 UTC NOAA

EKSN 191150Z 28006KT 9999 FEW025 12/07 Q1024


Station Type Date Time Source
EKSN Decoded METAR 2018/10/19 11:50 UTC NOAA

Sindal Flyveplads, Denmark (EKSN) 57-30N 010-13E 28M
Oct 19, 2018 - 07:50 AM EDT / 2018.10.19 1150 UTC
Wind: from the W (280 degrees) at 7 MPH (6 KT):0
Visibility: greater than 7 mile(s):0
Sky conditions: mostly clear
Temperature: 53 F (12 C)
Dew Point: 44 F (7 C)
Relative Humidity: 71%
Pressure (altimeter): 30.24 in. Hg (1024 hPa)
ob: EKSN 191150Z 28006KT 9999 FEW025 12/07 Q1024
cycle: 12

Station Type Date Time Source
EKSN TAF UTC NOAA

Error!


Example: see airport list